Tiempo atmosférico en la estación meteorológica de Villayón, Oneta, Asturias (410 m.)



Fecha
DESCASC
Temp. máxima en grados centígrados (hora)
DESCASC
Temp. mínima en grados centígrados (hora)
DESCASC
Temp. media en grados centígrados
DESCASC
Racha de viento máxima en m/sg (hora)
DESCASC
Velocidad máxima media en intervalos de 10 minutos(hora)
DESCASC
Precipitaciones diarias en mm
DESCASC
Precipitaciones de 00:00 a 06:00 en mm
DESCASC
Precipitaciones de 06:00 a 12:00 en mm
DESCASC
Precipitaciones de 12:00 a 18:00 en mm
DESCASC
Precipitaciones de 18:00 a 24:00 en mm
DESCASC
31-03-2020 7.4 (16:30) 1.6 (00:00) 4.5 19.72 (15:10) 13.61 (14:40) 3.4 3.2 0.2 0 0
30-03-2020 5.6 (00:20) 1.1 (23:20) 3.3 16.94 (10:40) 9.72 (03:00) 16.2 1.4 5.4 1.8 7.6
29-03-2020 11.8 (12:20) 5.4 (00:00) 8.6 16.67 (23:30) 9.72 (20:00) 0.4 0 0 0 0.4
28-03-2020 14.3 (15:00) 4.9 (00:00) 9.6 7.5 (17:20) 5.56 (17:10) 0 0 0 0 0
27-03-2020 11.6 (13:20) 4.4 (00:00) 8 13.33 (10:10) 10 (10:50) 0 0 0 0 0
26-03-2020 10.6 (12:30) 4.4 (00:00) 7.5 9.17 (15:00) 6.11 (16:20) 0 0 0 0 0
25-03-2020 15.9 (14:20) 6.9 (00:00) 11.4 6.94 (16:40) 4.44 (13:50) 0 0 0 0 0
24-03-2020 16 (13:30) 7.7 (00:00) 11.8 10.56 (01:50) 6.67 (02:00) 0 0 0 0 0
23-03-2020 11.4 (12:30) 8.9 (00:00) 10.1 10.56 (23:40) 6.94 (23:40) 0 0 0 0 0
22-03-2020 11.6 (14:10) 8.5 (04:10) 10.1 7.78 (14:50) 4.72 (14:40) 0 0 0 0 0
21-03-2020 13.1 (15:50) 7.6 (00:00) 10.4 4.72 (16:30) 3.61 (16:30) 0.2 0 0.2 0 0
20-03-2020 13.5 (13:20) 8.5 (00:00) 11 3.61 (16:10) 2.22 (15:50) 0.2 0.2 0 0 0
19-03-2020 14.4 (13:00) 7.4 (00:00) 10.9 4.17 (19:10) 2.78 (13:20) 1.4 0.2 0 0.6 0.6
18-03-2020 15.5 (12:30) 5.6 (00:00) 10.5 4.44 (14:00) 3.06 (14:00) 0 0 0 0 0
17-03-2020 12.9 (13:50) 6.1 (00:00) 9.5 13.06 (12:20) 8.33 (12:50) 0 0 0 0 0
16-03-2020 8.3 (14:40) 3 (00:00) 5.7 15 (15:10) 7.78 (15:30) 12.4 3.2 4 5.2 0
15-03-2020 14.8 (12:40) 2.6 (00:00) 8.7 17.5 (12:50) 11.39 (13:00) 12.2 0 0 9.4 2.8
14-03-2020 13.2 (12:20) 5.7 (00:00) 9.4 7.22 (15:00) 5.28 (14:20) 0 0 0 0 0
13-03-2020 10.4 (17:20) 6.3 (05:50) 8.3 10 (03:20) 6.39 (05:30) 0.4 0.4 0 0 0
12-03-2020 11.3 (00:00) 6.7 (00:00) 9 7.78 (17:10) 5.83 (17:10) 1.2 0 0.2 0.8 0.2
11-03-2020 15.9 (14:20) 9.2 (00:00) 12.5 7.22 (15:50) 5.56 (15:50) 0 0 0 0 0
10-03-2020 16.9 (16:10) 10 (00:00) 13.4 5.83 (18:00) 3.89 (17:30) 0 0 0 0 0
09-03-2020 15.1 (14:40) 6.5 (00:00) 10.8 7.5 (15:20) 4.72 (15:30) 0 0 0 0 0
08-03-2020 15.6 (13:50) 7.3 (00:00) 11.5 14.17 (05:00) 8.33 (16:30) 0.4 0.2 0.2 0 0
07-03-2020 12.8 (14:30) 6.7 (00:00) 9.8 5.56 (14:00) 3.89 (14:00) 1 1 0 0 0
06-03-2020 8.3 (16:00) 3.9 (00:00) 6.1 16.67 (07:30) 9.17 (15:30) 9.2 3.2 5.6 0.4 0
05-03-2020 15.2 (00:00) 6.3 (00:00) 10.8 20.28 (01:00) 8.89 (02:20) 14.6 6.6 3.8 0.6 3.6
04-03-2020 17.2 (14:10) 11.3 (00:00) 14.3 17.5 (23:30) 7.22 (23:20) 0.2 0.2 0 0 0
03-03-2020 15.6 (11:30) 6.9 (00:00) 11.3 25.28 (06:20) 8.89 (06:10) 6 2.4 0 0 3.6
02-03-2020 9 (00:00) 4 (00:00) 6.5 28.06 (13:50) 12.78 (02:20) 31.4 25.4 4.2 1.8 0

Gráficas

Temp. máximas Temp. mínimas Temp. medias Precipitaciones Rachas de viento máximas Velocidades máximas media en intervalos de 10 minutos

Datos horarios

Fecha y hora oficial Temperatura (ºC) Velocidad del viento (km/h) Dirección del viento Racha (km/h) Dirección de racha Precipitación (mm) Presión (hPa) Tendencia (hPa) Humedad (%)
2020-03-31 23:00:00 6.5 12 Sudeste 34 Este 0 -- -- 90
2020-03-31 22:00:00 6.3 13 Este 48 Este 0 -- -- 92
2020-03-31 21:00:00 6 18 Este 38 Este 0 -- -- 94
2020-03-31 20:00:00 5.8 19 Este 48 Este 0 -- -- 94
2020-03-31 19:00:00 6.1 28 Este 46 Este 0 -- -- 89
2020-03-31 18:00:00 6.6 16 Este 56 Este 0 -- -- 82
2020-03-31 17:00:00 6.9 35 Este 61 Este 0 -- -- 80
2020-03-31 16:00:00 7 40 Este 71 Este 0 -- -- 80
2020-03-31 15:00:00 6 48 Este 71 Este 0 -- -- 84
2020-03-31 14:00:00 5.7 33 Este 64 Este 0 -- -- 79
2020-03-31 13:00:00 5.1 31 Este 59 Este 0 -- -- 79
2020-03-31 12:00:00 4.1 32 Este 62 Nordeste 0 -- -- 80
2020-03-31 11:00:00 3.6 24 Este 45 Este 0.2 -- -- 80
2020-03-31 10:00:00 2.9 17 Este 35 Este 0 -- -- 85
2020-03-31 09:00:00 2.8 16 Este 31 Nordeste 0 -- -- 86
2020-03-31 08:00:00 2.6 14 Este 26 Nordeste 0 -- -- 90
2020-03-31 07:00:00 2 8 Este 21 Sudeste 0 -- -- 91
2020-03-31 06:00:00 1.9 9 Sudeste 29 Este 0 -- -- 93
2020-03-31 05:00:00 2 17 Este 30 Este 0 -- -- 92
2020-03-31 04:00:00 1.9 21 Este 35 Este 0.4 -- -- 94
2020-03-31 03:00:00 1.7 20 Este 39 Nordeste 1.4 -- -- 95
2020-03-31 02:00:00 2.2 12 Este 36 Este 0.2 -- -- 95
2020-03-31 01:00:00 2 19 Este 42 Este 1.2 -- -- 96
2020-03-31 00:00:00 1.6 9 Este 30 Este 1.8 -- -- 97
2020-03-30 23:00:00 1.4 21 Este 38 Este 3 -- -- 97
2020-03-30 22:00:00 2.2 18 Este 41 Este 0.8 -- -- 94
2020-03-30 21:00:00 2.3 22 Este 44 Este 1.2 -- -- 93
2020-03-30 20:00:00 2.3 14 Nordeste 46 Nordeste 0.8 -- -- 93
2020-03-30 19:00:00 3.4 16 Sudeste 52 Este 0 -- -- 82
2020-03-30 18:00:00 3.9 26 Nordeste 50 Este 0 -- -- 81
2020-03-30 17:00:00 3.3 32 Nordeste 54 Nordeste 0 -- -- 85
2020-03-30 16:00:00 4.4 27 Nordeste 43 Nordeste 0 -- -- 73
2020-03-30 15:00:00 3.9 30 Nordeste 49 Nordeste 0.4 -- -- 76
2020-03-30 14:00:00 2.7 27 Nordeste 54 Nordeste 0.8 -- -- 89
2020-03-30 13:00:00 2.8 34 Nordeste 56 Nordeste 0.6 -- -- 87
2020-03-30 12:00:00 3.2 22 Nordeste 50 Nordeste 0.6 -- -- 83
2020-03-30 11:00:00 1.6 30 Este 61 Este 2.6 -- -- 96
2020-03-30 10:00:00 3 23 Este 42 Este 0 -- -- 89
2020-03-30 09:00:00 2 17 Este 56 Este 1.6 -- -- 96
2020-03-30 08:00:00 3.8 19 Este 46 Este 0 -- -- 85
2020-03-30 07:00:00 3.7 19 Este 37 Este 0.6 -- -- 90
2020-03-30 06:00:00 3.4 18 Este 42 Este 1.4 -- -- 92
2020-03-30 05:00:00 4.9 27 Este 50 Este 0 -- -- 80
2020-03-30 04:00:00 4.9 19 Este 60 Nordeste 0 -- -- 83
2020-03-30 03:00:00 4.8 35 Este 57 Este 0 -- -- 86
2020-03-30 02:00:00 5.2 27 Nordeste 53 Este 0 -- -- 89
2020-03-30 01:00:00 5.4 28 Este 49 Este 0 -- -- 90
2020-03-30 00:00:00 5.4 26 Este 60 Este 0.2 -- -- 94
2020-03-29 23:00:00 5.6 29 Nordeste 46 Este 0 -- -- 96
2020-03-29 22:00:00 5.9 30 Nordeste 54 Este 0 -- -- 99
2020-03-29 21:00:00 6.5 30 Nordeste 54 Nordeste 0.2 -- -- 99
2020-03-29 20:00:00 7.3 35 Nordeste 57 Nordeste 0 -- -- 98
2020-03-29 19:00:00 8.7 28 Nordeste 49 Este 0 -- -- 92
2020-03-29 18:00:00 10.2 25 Nordeste 45 Este 0 -- -- 75
2020-03-29 17:00:00 11.3 24 Nordeste 32 Nordeste 0 -- -- 69
2020-03-29 16:00:00 10.1 18 Nordeste 31 Nordeste 0 -- -- 82
2020-03-29 15:00:00 9.6 18 Nordeste 28 Nordeste 0 -- -- 86
2020-03-29 14:00:00 10.1 16 Norte 28 Norte 0 -- -- 84
2020-03-29 13:00:00 11.7 16 Nordeste 40 Sudeste 0 -- -- 75
2020-03-29 12:00:00 11 13 Este 40 Este 0 -- -- 72
2020-03-29 11:00:00 10.7 15 Este 31 Este 0 -- -- 73
2020-03-29 10:00:00 8.8 10 Este 22 Este 0 -- -- 79
2020-03-29 09:00:00 7.6 6 Norte 15 Este 0 -- -- 81
2020-03-29 08:00:00 7.7 3 Este 24 Este 0 -- -- 82
2020-03-29 07:00:00 8.1 12 Este 21 Este 0 -- -- 83
2020-03-29 06:00:00 8.2 12 Este 21 Este 0 -- -- 87
2020-03-29 05:00:00 8.3 8 Este 23 Sudeste 0 -- -- 87
2020-03-29 03:00:00 8.3 7 Este 19 Nordeste 0 -- -- 87
2020-03-29 01:00:00 8.1 5 Nordeste 15 Nordeste 0 -- -- 88
2020-03-29 00:00:00 8.1 5 Este 12 Nordeste 0 -- -- 90
2020-03-28 23:00:00 8.3 12 Este 18 Este 0 -- -- 91
2020-03-28 22:00:00 8.4 10 Este 15 Este 0 -- -- 94
2020-03-28 21:00:00 8.5 8 Este 17 Este 0 -- -- 93
2020-03-28 20:00:00 8.9 8 Este 19 Este 0 -- -- 89
2020-03-28 19:00:00 9.4 14 Este 23 Nordeste 0 -- -- 87
2020-03-28 18:00:00 10.6 13 Nordeste 27 Este 0 -- -- 83
2020-03-28 17:00:00 11 17 Este 27 Este 0 -- -- 82
2020-03-28 16:00:00 12.2 13 Este 20 Este 0 -- -- 77
2020-03-28 15:00:00 14.3 11 Noroeste 21 Noroeste 0 -- -- 71
2020-03-28 14:00:00 13.5 10 Noroeste 17 Noroeste 0 -- -- 73
2020-03-28 13:00:00 13.1 6 Noroeste 13 Oeste 0 -- -- 73
2020-03-28 12:00:00 11.4 6 Oeste 13 Oeste 0 -- -- 76
2020-03-28 11:00:00 10.3 5 Noroeste 8 Noroeste 0 -- -- 67
2020-03-28 10:00:00 10.5 3 Sur 9 Sur 0 -- -- 69
2020-03-28 09:00:00 7.9 4 Sudeste 6 Sur 0 -- -- 76
2020-03-28 08:00:00 5 0 Calma 5 Noroeste 0 -- -- 81
2020-03-28 07:00:00 5.1 0 Calma 4 Noroeste 0 -- -- 82
2020-03-28 06:00:00 5.8 0 Calma 5 Nordeste 0 -- -- 81
2020-03-28 05:00:00 5.3 4 Sudeste 5 Sudeste 0 -- -- 82
2020-03-28 04:00:00 5.7 0 Calma 10 Sudoeste 0 -- -- 82
2020-03-28 03:00:00 6.3 0 Calma 4 Noroeste 0 -- -- 82
2020-03-28 02:00:00 6.6 0 Calma 7 Noroeste 0 -- -- 82
2020-03-28 01:00:00 6.7 0 Calma 8 Sudoeste 0 -- -- 82
2020-03-28 00:00:00 7.1 0 Calma 22 Sur 0 -- -- 80
2020-03-27 23:00:00 7.5 14 Sudeste 27 Sudeste 0 -- -- 80
2020-03-27 22:00:00 7.4 5 Este 15 Este 0 -- -- 81
2020-03-27 21:00:00 7.4 4 Este 14 Este 0 -- -- 80
2020-03-27 20:00:00 8 7 Nordeste 35 Este 0 -- -- 77
2020-03-27 19:00:00 8.7 25 Este 39 Este 0 -- -- 76
2020-03-27 18:00:00 9.5 25 Este 45 Este 0 -- -- 73
2020-03-27 17:00:00 10.1 24 Nordeste 45 Este 0 -- -- 69
2020-03-27 16:00:00 10 32 Nordeste 45 Nordeste 0 -- -- 67
2020-03-27 15:00:00 10.7 28 Nordeste 41 Nordeste 0 -- -- 66
2020-03-27 14:00:00 10.4 24 Norte 35 Norte 0 -- -- 64
2020-03-27 13:00:00 10.9 12 Nordeste 29 Este 0 -- -- 57
2020-03-27 12:00:00 10.1 10 Nordeste 24 Este 0 -- -- 53
2020-03-27 11:00:00 9.3 25 Sudeste 48 Sudeste 0 -- -- 56
2020-03-27 10:00:00 7.7 24 Sudeste 37 Este 0 -- -- 59
2020-03-27 09:00:00 6.6 18 Este 32 Este 0 -- -- 63
2020-03-27 08:00:00 4.5 10 Sudeste 24 Nordeste 0 -- -- 76
2020-03-27 07:00:00 4.4 9 Este 21 Este 0 -- -- 77
2020-03-27 06:00:00 4.8 15 Este 26 Nordeste 0 -- -- 75
2020-03-27 05:00:00 4.6 6 Este 24 Este 0 -- -- 76
2020-03-27 04:00:00 4.7 14 Sudeste 23 Sudeste 0 -- -- 78
2020-03-27 03:00:00 4.7 9 Este 27 Nordeste 0 -- -- 80
2020-03-27 02:00:00 5.2 14 Este 26 Este 0 -- -- 81
2020-03-27 01:00:00 5.9 11 Este 24 Este 0 -- -- 82
2020-03-27 00:00:00 6.2 15 Nordeste 28 Nordeste 0 -- -- 84
2020-03-26 23:00:00 6.6 12 Nordeste 27 Nordeste 0 -- -- 86
2020-03-26 22:00:00 7 14 Nordeste 23 Nordeste 0 -- -- 85
2020-03-26 21:00:00 6.1 5 Este 19 Nordeste 0 -- -- 85
2020-03-26 20:00:00 6.8 7 Nordeste 22 Este 0 -- -- 81
2020-03-26 19:00:00 7.6 14 Nordeste 30 Nordeste 0 -- -- 75
2020-03-26 18:00:00 8.9 13 Nordeste 30 Norte 0 -- -- 68
2020-03-26 17:00:00 8.6 21 Norte 31 Norte 0 -- -- 71
2020-03-26 16:00:00 9.7 18 Nordeste 30 Nordeste 0 -- -- 66
2020-03-26 15:00:00 9.6 20 Norte 33 Nordeste 0 -- -- 72
2020-03-26 14:00:00 10.6 10 Norte 24 Norte 0 -- -- 69
2020-03-26 13:00:00 10.3 9 Nordeste 26 Este 0 -- -- 66
2020-03-26 12:00:00 9.3 7 Norte 19 Norte 0 -- -- 75
2020-03-26 11:00:00 8.2 7 Noroeste 20 Noroeste 0 -- -- 83
2020-03-26 10:00:00 6.5 8 Norte 12 Nordeste 0 -- -- 82
2020-03-26 09:00:00 6.4 0 Calma 5 Este 0 -- -- 92
2020-03-26 08:00:00 4.4 2 Sudeste 5 Este 0 -- -- 90
2020-03-26 07:00:00 4.9 2 Sudeste 6 Sur 0 -- -- 92
2020-03-26 06:00:00 5.6 3 Nordeste 5 Este 0 -- -- 93
2020-03-26 05:00:00 5.1 0 Calma 7 Sudoeste 0 -- -- 94
2020-03-26 04:00:00 5.9 3 Sudoeste 5 Sudoeste 0 -- -- 94
2020-03-26 03:00:00 6.4 3 Noroeste 6 Este 0 -- -- 93
2020-03-26 02:00:00 6.3 3 Sur 5 Este 0 -- -- 85
2020-03-26 01:00:00 6.6 3 Sudeste 8 Este 0 -- -- 92
2020-03-26 00:00:00 7.1 7 Este 15 Este 0 -- -- 96
2020-03-25 23:00:00 6.9 4 Este 10 Este 0 -- -- 97
2020-03-25 22:00:00 7.5 4 Este 7 Este 0 -- -- 98
2020-03-25 21:00:00 8.1 0 Calma 4 Este 0 -- -- 97
2020-03-25 20:00:00 9.2 0 Calma 7 Oeste 0 -- -- 100
2020-03-25 19:00:00 10.2 6 Noroeste 14 Noroeste 0 -- -- 97
2020-03-25 18:00:00 13.1 6 Noroeste 15 Noroeste 0 -- -- 86
2020-03-25 17:00:00 14.2 9 Sudeste 25 Sudeste 0 -- -- 63
2020-03-25 16:00:00 14.3 6 Noroeste 20 Noroeste 0 -- -- 86
2020-03-25 15:00:00 14.3 9 Oeste 21 Noroeste 0 -- -- 82
2020-03-25 14:00:00 15 14 Noroeste 23 Oeste 0 -- -- 78
2020-03-25 13:00:00 15.2 7 Oeste 13 Noroeste 0 -- -- 78
2020-03-25 12:00:00 14.1 8 Oeste 13 Noroeste 0 -- -- 83
2020-03-25 11:00:00 12.6 4 Noroeste 6 Noroeste 0 -- -- 83
2020-03-25 10:00:00 13.4 2 Sur 9 Sudeste 0 -- -- 83
2020-03-25 09:00:00 12 0 Calma 4 Sur 0 -- -- 86
2020-03-25 08:00:00 9.5 2 Este 9 Sur 0 -- -- 90
2020-03-25 07:00:00 9 7 Sudeste 10 Sur 0 -- -- 92
2020-03-25 06:00:00 9.5 0 Calma 5 Sur 0 -- -- 92
2020-03-25 05:00:00 9.6 0 Calma 4 Sudoeste 0 -- -- 93
2020-03-25 04:00:00 9.9 3 Este 4 Este 0 -- -- 95
2020-03-25 03:00:00 9.8 2 Norte 4 Noroeste 0 -- -- 99
2020-03-25 02:00:00 9.2 2 Sudeste 4 Sudeste 0 -- -- 100
2020-03-25 01:00:00 9.5 3 Sur 8 Este 0 -- -- 100
2020-03-25 00:00:00 9.1 3 Sudeste 5 Sudeste 0 -- -- 100
2020-03-24 23:00:00 9.7 3 Noroeste 5 Noroeste 0 -- -- 100
2020-03-24 22:00:00 9.9 3 Sur 6 Noroeste 0 -- -- 100
2020-03-24 21:00:00 10 2 Sudeste 4 Sur 0 -- -- 100
2020-03-24 20:00:00 10.5 0 Calma 8 Noroeste 0 -- -- 99
2020-03-24 19:00:00 12.2 4 Noroeste 14 Noroeste 0 -- -- 90
2020-03-24 18:00:00 13.7 6 Oeste 18 Noroeste 0 -- -- 88
2020-03-24 17:00:00 15.1 6 Noroeste 20 Noroeste 0 -- -- 83
2020-03-24 16:00:00 15.1 6 Noroeste 18 Oeste 0 -- -- 86
2020-03-24 15:00:00 14.9 8 Noroeste 18 Noroeste 0 -- -- 84
2020-03-24 14:00:00 15.2 9 Oeste 17 Noroeste 0 -- -- 83
2020-03-24 13:00:00 14.9 9 Oeste 15 Oeste 0 -- -- 83
2020-03-24 12:00:00 13.8 5 Oeste 9 Oeste 0 -- -- 84
2020-03-24 11:00:00 12.6 2 Noroeste 8 Sudeste 0 -- -- 85
2020-03-24 10:00:00 12.1 4 Sur 8 Sudeste 0 -- -- 88
2020-03-24 09:00:00 10.5 2 Sur 5 Sudeste 0 -- -- 92
2020-03-24 08:00:00 7.7 0 Calma 6 Sur 0 -- -- 96
2020-03-24 07:00:00 7.9 2 Noroeste 8 Sudoeste 0 -- -- 97
2020-03-24 06:00:00 8.3 0 Calma 10 Sudeste 0 -- -- 94
2020-03-24 05:00:00 8.7 6 Sudeste 16 Sur 0 -- -- 93
2020-03-24 04:00:00 9 5 Sudeste 23 Sudeste 0 -- -- 91
2020-03-24 03:00:00 9.4 11 Sudeste 36 Sudeste 0 -- -- 90
2020-03-24 02:00:00 9.5 24 Sudeste 38 Sudeste 0 -- -- 91
2020-03-24 01:00:00 9.7 6 Este 33 Sudeste 0 -- -- 91
2020-03-24 00:00:00 9.4 21 Sudeste 38 Este 0 -- -- 95
2020-03-23 23:00:00 9.1 19 Este 32 Este 0 -- -- 99
2020-03-23 22:00:00 9.2 18 Este 26 Este 0 -- -- 96
2020-03-23 21:00:00 9.3 9 Nordeste 28 Este 0 -- -- 97
2020-03-23 20:00:00 9.5 15 Este 32 Este 0 -- -- 96
2020-03-23 19:00:00 9.6 18 Este 26 Nordeste 0 -- -- 97
2020-03-23 18:00:00 9.6 18 Este 27 Nordeste 0 -- -- 99
2020-03-23 17:00:00 9.4 17 Nordeste 28 Nordeste 0 -- -- 100
2020-03-23 16:00:00 9.8 15 Norte 26 Norte 0 -- -- 99
2020-03-23 15:00:00 10.6 16 Norte 25 Norte 0 -- -- 94
2020-03-23 14:00:00 11.2 15 Nordeste 25 Norte 0 -- -- 91
2020-03-23 13:00:00 11.3 4 Sudoeste 9 Noroeste 0 -- -- 92
2020-03-23 12:00:00 10.4 3 Sur 10 Noroeste 0 -- -- 97
2020-03-23 11:00:00 10.3 5 Noroeste 10 Sudeste 0 -- -- 99
2020-03-23 10:00:00 9.9 3 Noroeste 13 Este 0 -- -- 97
2020-03-23 09:00:00 9.4 8 Este 18 Este 0 -- -- 96
2020-03-23 08:00:00 8.9 6 Nordeste 19 Nordeste 0 -- -- 100
2020-03-23 07:00:00 9 7 Este 18 Este 0 -- -- 99
2020-03-23 06:00:00 9.2 11 Este 17 Este 0 -- -- 97
2020-03-23 05:00:00 9.1 7 Nordeste 14 Nordeste 0 -- -- 98
2020-03-23 04:00:00 9.2 6 Nordeste 15 Nordeste 0 -- -- 98
2020-03-23 03:00:00 9.1 5 Nordeste 21 Nordeste 0 -- -- 100
2020-03-23 02:00:00 9 9 Nordeste 18 Este 0 -- -- 100
2020-03-23 01:00:00 9.3 11 Nordeste 20 Este 0 -- -- 100
2020-03-23 00:00:00 9.5 12 Nordeste 20 Nordeste 0 -- -- 99
2020-03-22 23:00:00 9.5 10 Nordeste 21 Nordeste 0 -- -- 99
2020-03-22 22:00:00 9.7 11 Nordeste 22 Nordeste 0 -- -- 98
2020-03-22 21:00:00 9.8 9 Nordeste 16 Norte 0 -- -- 98
2020-03-22 20:00:00 9.9 8 Este 14 Este 0 -- -- 98
2020-03-22 19:00:00 10.1 6 Nordeste 12 Nordeste 0 -- -- 97
2020-03-22 18:00:00 10.2 5 Nordeste 17 Norte 0 -- -- 96
2020-03-22 17:00:00 10.4 10 Norte 19 Noroeste 0 -- -- 93
2020-03-22 16:00:00 11 9 Norte 28 Noroeste 0 -- -- 94
2020-03-22 15:00:00 11.3 15 Noroeste 28 Noroeste 0 -- -- 93
2020-03-22 14:00:00 11.5 16 Noroeste 24 Noroeste 0 -- -- 94
2020-03-22 13:00:00 11.4 9 Noroeste 14 Noroeste 0 -- -- 96
2020-03-22 12:00:00 10.6 7 Noroeste 12 Noroeste 0 -- -- 97
2020-03-22 11:00:00 10.2 4 Noroeste 8 Noroeste 0 -- -- 99
2020-03-22 10:00:00 9.4 6 Noroeste 9 Noroeste 0 -- -- 100
2020-03-22 09:00:00 9.1 2 Noroeste 3 Sudeste 0 -- -- 100
2020-03-22 08:00:00 8.7 0 Calma 3 Este 0 -- -- 100
2020-03-22 07:00:00 8.6 0 Calma 5 Sudeste 0 -- -- 100
2020-03-22 06:00:00 8.5 2 Sudeste 5 Este 0 -- -- 100
2020-03-22 05:00:00 8.5 2 Noroeste 9 Noroeste 0 -- -- 100
2020-03-22 04:00:00 8.6 6 Noroeste 9 Noroeste 0 -- -- 100
2020-03-22 03:00:00 8.7 4 Noroeste 9 Noroeste 0 -- -- 100
2020-03-22 02:00:00 8.9 2 Oeste 6 Norte 0 -- -- 100
2020-03-22 01:00:00 8.7 4 Noroeste 6 Noroeste 0 -- -- 100
2020-03-22 00:00:00 8.8 5 Noroeste 6 Noroeste 0 -- -- 100
2020-03-21 23:00:00 8.8 2 Norte 17 Noroeste 0 -- -- 100
2020-03-21 22:00:00 9.1 6 Norte 15 Noroeste 0 -- -- 100
2020-03-21 21:00:00 9.4 5 Noroeste 6 Noroeste 0 -- -- 100
2020-03-21 20:00:00 9.5 0 Calma 10 Noroeste 0 -- -- 100
2020-03-21 19:00:00 9.6 8 Noroeste 13 Noroeste 0 -- -- 100
2020-03-21 18:00:00 10.6 8 Noroeste 13 Noroeste 0 -- -- 100
2020-03-21 17:00:00 11.5 4 Noroeste 17 Noroeste 0 -- -- 100
2020-03-21 16:00:00 12.9 8 Noroeste 13 Noroeste 0 -- -- 94
2020-03-21 15:00:00 11.8 7 Noroeste 15 Noroeste 0 -- -- 100
2020-03-21 14:00:00 10.7 8 Noroeste 13 Noroeste 0 -- -- 100
2020-03-21 13:00:00 11 5 Noroeste 9 Noroeste 0 -- -- 100
2020-03-21 12:00:00 9.8 3 Noroeste 8 Noroeste 0 -- -- 100
2020-03-21 11:00:00 9.2 4 Norte 7 Noroeste 0 -- -- 100
2020-03-21 10:00:00 8.8 2 Noroeste 6 Este 0 -- -- 100
2020-03-21 09:00:00 8.2 3 Sur 8 Sudeste 0 -- -- 100
2020-03-21 08:00:00 7.7 3 Este 9 Este 0.2 -- -- 100
2020-03-21 07:00:00 7.8 5 Este 7 Este 0 -- -- 100
2020-03-21 06:00:00 7.9 3 Este 8 Oeste 0 -- -- 100
2020-03-21 05:00:00 8.2 2 Nordeste 13 Este 0 -- -- 100
2020-03-21 04:00:00 8.5 4 Este 6 Este 0 -- -- 100
2020-03-21 03:00:00 8.8 4 Oeste 7 Oeste 0 -- -- 100
2020-03-21 02:00:00 9.6 0 Calma 5 Este 0 -- -- 100
2020-03-21 01:00:00 9.3 4 Este 5 Este 0 -- -- 100
2020-03-21 00:00:00 9.8 2 Sudeste 6 Sudoeste 0 -- -- 100
2020-03-20 23:00:00 10 4 Nordeste 8 Este 0 -- -- 100
2020-03-20 22:00:00 10.1 0 Calma 6 Noroeste 0 -- -- 100
2020-03-20 21:00:00 10.4 3 Sudeste 8 Noroeste 0 -- -- 100
2020-03-20 20:00:00 10.5 3 Noroeste 9 Oeste 0 -- -- 100
2020-03-20 19:00:00 11.3 0 Calma 9 Noroeste 0 -- -- 100
2020-03-20 18:00:00 12.3 6 Noroeste 10 Noroeste 0 -- -- 99
2020-03-20 17:00:00 13.1 3 Oeste 13 Noroeste 0 -- -- 95
2020-03-20 16:00:00 13.5 7 Oeste 13 Noroeste 0 -- -- 99
2020-03-20 15:00:00 13.2 4 Noroeste 7 Noroeste 0 -- -- 99
2020-03-20 14:00:00 12.5 4 Noroeste 10 Noroeste 0 -- -- 100
2020-03-20 13:00:00 12.8 3 Noroeste 5 Sudeste 0 -- -- 99
2020-03-20 12:00:00 11.8 0 Calma 2 Noroeste 0 -- -- 100
2020-03-20 11:00:00 11 0 Calma 5 Sudoeste 0 -- -- 100
2020-03-20 10:00:00 11.1 2 Sur 9 Sur 0 -- -- 100
2020-03-20 09:00:00 9.1 3 Sudeste 8 Este 0 -- -- 100
2020-03-20 08:00:00 8.5 5 Este 8 Este 0 -- -- 100
2020-03-20 07:00:00 8.7 2 Este 4 Este 0 -- -- 100
2020-03-20 06:00:00 8.8 0 Calma 5 Este 0 -- -- 100
2020-03-20 05:00:00 8.8 3 Nordeste 5 Este 0.2 -- -- 100
2020-03-20 04:00:00 9.1 3 Este 4 Este 0 -- -- 100
2020-03-20 03:00:00 9.2 0 Calma 3 Noroeste 0 -- -- 100
2020-03-20 02:00:00 9.3 3 Noroeste 6 Oeste 0 -- -- 100
2020-03-20 01:00:00 9.5 3 Noroeste 6 Noroeste 0 -- -- 100
2020-03-20 00:00:00 9.3 2 Este 8 Este 0 -- -- 100
2020-03-19 23:00:00 9.4 0 Calma 7 Sudoeste 0 -- -- 100
2020-03-19 22:00:00 9.7 2 Sudoeste 10 Noroeste 0 -- -- 100
2020-03-19 21:00:00 10.1 8 Oeste 12 Oeste 0.2 -- -- 100
2020-03-19 20:00:00 11.2 4 Nordeste 15 Este 0.2 -- -- 100
2020-03-19 19:00:00 9.8 8 Este 13 Este 0.2 -- -- 100
2020-03-19 18:00:00 10.4 3 Oeste 13 Oeste 0.6 -- -- 100
2020-03-19 17:00:00 11.3 7 Noroeste 12 Noroeste 0 -- -- 98
2020-03-19 16:00:00 12.7 5 Noroeste 12 Noroeste 0 -- -- 95
2020-03-19 15:00:00 14 6 Noroeste 14 Noroeste 0 -- -- 91
2020-03-19 14:00:00 14.1 8 Noroeste 15 Noroeste 0 -- -- 91
2020-03-19 13:00:00 14.4 2 Noroeste 13 Noroeste 0 -- -- 90
2020-03-19 12:00:00 13.6 3 Sudoeste 13 Noroeste 0 -- -- 97
2020-03-19 11:00:00 11.5 3 Noroeste 7 Este 0 -- -- 100
2020-03-19 10:00:00 10.3 2 Noroeste 5 Oeste 0 -- -- 100
2020-03-19 09:00:00 8.3 2 Sur 5 Este 0 -- -- 100
2020-03-19 08:00:00 7.6 4 Este 6 Este 0 -- -- 100
2020-03-19 07:00:00 7.5 3 Sudeste 5 Este 0 -- -- 100
2020-03-19 06:00:00 7.6 2 Nordeste 7 Este 0 -- -- 100
2020-03-19 05:00:00 7.9 2 Este 10 Este 0 -- -- 100
2020-03-19 04:00:00 8 5 Nordeste 7 Este 0 -- -- 100
2020-03-19 03:00:00 8.2 4 Este 8 Este 0.2 -- -- 100
2020-03-19 02:00:00 8.6 3 Este 6 Este 0 -- -- 100
2020-03-19 01:00:00 8.8 2 Nordeste 7 Sudeste 0 -- -- 100
2020-03-19 00:00:00 9 4 Sudeste 5 Sudeste 0 -- -- 100
2020-03-18 23:00:00 9.2 0 Calma 4 Oeste 0 -- -- 100
2020-03-18 22:00:00 9.3 0 Calma 6 Noroeste 0 -- -- 100
2020-03-18 21:00:00 9.4 0 Calma 4 Noroeste 0 -- -- 100
2020-03-18 20:00:00 9.6 3 Noroeste 6 Noroeste 0 -- -- 100
2020-03-18 19:00:00 10.4 4 Noroeste 10 Oeste 0 -- -- 100
2020-03-18 18:00:00 11.4 6 Noroeste 13 Noroeste 0 -- -- 96
2020-03-18 17:00:00 14 8 Noroeste 13 Noroeste 0 -- -- 87
2020-03-18 16:00:00 14.8 7 Noroeste 14 Noroeste 0 -- -- 85
2020-03-18 15:00:00 14.6 8 Noroeste 14 Oeste 0 -- -- 88
2020-03-18 14:00:00 14.4 11 Noroeste 16 Noroeste 0 -- -- 87
2020-03-18 13:00:00 15 9 Noroeste 13 Noroeste 0 -- -- 80
2020-03-18 12:00:00 14.4 3 Noroeste 8 Sur 0 -- -- 78
2020-03-18 11:00:00 13.9 5 Sur 12 Sur 0 -- -- 80
2020-03-18 10:00:00 11.8 2 Sudeste 6 Sudeste 0 -- -- 88
2020-03-18 09:00:00 9.6 2 Este 5 Sudoeste 0 -- -- 100
2020-03-18 08:00:00 6.6 4 Sudoeste 8 Sudoeste 0 -- -- 100
2020-03-18 07:00:00 6.2 0 Calma 4 Noroeste 0 -- -- 100
2020-03-18 06:00:00 7.1 0 Calma 5 Sudoeste 0 -- -- 100
2020-03-18 05:00:00 7.5 0 Calma 5 Sudeste 0 -- -- 100
2020-03-18 04:00:00 7.8 2 Norte 5 Noroeste 0 -- -- 99
2020-03-18 03:00:00 7.8 5 Sudeste 8 Sudeste 0 -- -- 98
2020-03-18 02:00:00 8.2 3 Nordeste 6 Norte 0 -- -- 98
2020-03-18 01:00:00 8.6 3 Este 4 Nordeste 0 -- -- 97
2020-03-18 00:00:00 8.4 3 Este 5 Noroeste 0 -- -- 97
2020-03-17 23:00:00 8.8 0 Calma 4 Sur 0 -- -- 96
2020-03-17 22:00:00 8.4 4 Sudeste 5 Sudeste 0 -- -- 98
2020-03-17 21:00:00 9 7 Este 22 Este 0 -- -- 94
2020-03-17 20:00:00 9.4 5 Sur 19 Este 0 -- -- 93
2020-03-17 19:00:00 10 19 Este 35 Este 0 -- -- 90
2020-03-17 18:00:00 10.5 23 Este 35 Este 0 -- -- 88
2020-03-17 17:00:00 11.6 16 Este 32 Este 0 -- -- 84
2020-03-17 16:00:00 11.3 22 Nordeste 32 Nordeste 0 -- -- 84
2020-03-17 15:00:00 12.5 19 Nordeste 31 Este 0 -- -- 82
2020-03-17 14:00:00 12.8 14 Nordeste 36 Este 0 -- -- 79
2020-03-17 13:00:00 12.2 22 Este 47 Este 0 -- -- 76
2020-03-17 12:00:00 11.8 14 Este 40 Este 0 -- -- 72
2020-03-17 11:00:00 10.8 13 Nordeste 34 Sudeste 0 -- -- 74
2020-03-17 10:00:00 8.4 17 Este 31 Nordeste 0 -- -- 80
2020-03-17 09:00:00 7.9 17 Este 32 Nordeste 0 -- -- 82
2020-03-17 08:00:00 7.2 15 Este 32 Este 0 -- -- 84
2020-03-17 07:00:00 6.6 6 Este 28 Este 0 -- -- 88
2020-03-17 06:00:00 6.5 12 Este 33 Nordeste 0 -- -- 87
2020-03-17 05:00:00 6.3 15 Nordeste 30 Nordeste 0 -- -- 86
2020-03-17 04:00:00 6.1 15 Este 26 Nordeste 0 -- -- 86
2020-03-17 03:00:00 6.3 11 Nordeste 31 Nordeste 0 -- -- 86
2020-03-17 02:00:00 6.4 12 Nordeste 25 Este 0 -- -- 87
2020-03-17 01:00:00 6.5 13 Nordeste 30 Este 0 -- -- 85
2020-03-17 00:00:00 6.5 14 Nordeste 31 Este 0 -- -- 87
2020-03-16 23:00:00 6.6 14 Este 27 Nordeste 0 -- -- 86
2020-03-16 22:00:00 6.8 19 Nordeste 34 Este 0 -- -- 85
2020-03-16 21:00:00 6.7 9 Nordeste 27 Nordeste 0 -- -- 85
2020-03-16 20:00:00 6.8 18 Nordeste 33 Nordeste 0 -- -- 83
2020-03-16 19:00:00 7.1 21 Nordeste 36 Norte 0 -- -- 83
2020-03-16 18:00:00 7.3 22 Norte 40 Norte 1 -- -- 88
2020-03-16 17:00:00 7.5 18 Nordeste 35 Norte 0 -- -- 89
2020-03-16 16:00:00 7.2 20 Norte 54 Nordeste 0.4 -- -- 97
2020-03-16 15:00:00 8 15 Norte 42 Nordeste 0 -- -- 90
2020-03-16 14:00:00 7 23 Norte 41 Nordeste 1.6 -- -- 99
2020-03-16 13:00:00 6 20 Norte 44 Este 2.2 -- -- 99
2020-03-16 12:00:00 7.2 17 Norte 45 Noroeste 0 -- -- 94
2020-03-16 11:00:00 6.7 23 Norte 44 Nordeste 0.2 -- -- 95
2020-03-16 10:00:00 5.3 25 Norte 46 Norte 3.2 -- -- 99
2020-03-16 09:00:00 6.6 20 Norte 42 Norte 0.2 -- -- 88
2020-03-16 08:00:00 5.9 18 Noroeste 44 Noroeste 0.4 -- -- 92
2020-03-16 07:00:00 5.7 19 Noroeste 39 Noroeste 0 -- -- 90
2020-03-16 06:00:00 5.2 6 Noroeste 24 Noroeste 0.6 -- -- 90
2020-03-16 05:00:00 5 8 Nordeste 16 Norte 0 -- -- 95
2020-03-16 04:00:00 4.3 8 Nordeste 15 Nordeste 0.8 -- -- 95
2020-03-16 03:00:00 3.3 3 Sur 9 Oeste 0.2 -- -- 100
2020-03-16 02:00:00 3.1 5 Sudeste 12 Noroeste 0.4 -- -- 100
2020-03-16 01:00:00 3.6 4 Sudeste 9 Este 1.2 -- -- 99
2020-03-16 00:00:00 3.4 2 Este 7 Sur 0.2 -- -- 98
2020-03-15 23:00:00 3.3 5 Sudeste 13 Sur 0.2 -- -- 97
2020-03-15 22:00:00 3 6 Sur 17 Sur 0 -- -- 99
2020-03-15 21:00:00 2.7 4 Sudoeste 17 Sur 0 -- -- 98
2020-03-15 20:00:00 2.9 13 Sudeste 21 Sur 1.6 -- -- 99
2020-03-15 19:00:00 2.9 3 Oeste 18 Sur 0.8 -- -- 99
2020-03-15 18:00:00 3.2 4 Oeste 20 Oeste 1.8 -- -- 100
2020-03-15 17:00:00 3.2 4 Oeste 37 Noroeste 2.2 -- -- 100
2020-03-15 16:00:00 4.2 20 Noroeste 50 Noroeste 2 -- -- 100
2020-03-15 15:00:00 5.9 12 Noroeste 42 Noroeste 2.2 -- -- 100
2020-03-15 14:00:00 6.8 8 Oeste 46 Noroeste 1.2 -- -- 100
2020-03-15 13:00:00 7.5 41 Noroeste 63 Noroeste 0 -- -- 96
2020-03-15 12:00:00 12.5 16 Sudoeste 49 Sudoeste 0 -- -- 67
2020-03-15 11:00:00 10.8 18 Sudoeste 47 Sur 0 -- -- 77
2020-03-15 10:00:00 8.7 6 Noroeste 15 Sudoeste 0 -- -- 84
2020-03-15 09:00:00 8.2 4 Norte 12 Sudoeste 0 -- -- 82
2020-03-15 08:00:00 6.3 4 Este 8 Este 0 -- -- 94
2020-03-15 07:00:00 6.8 0 Calma 9 Noroeste 0 -- -- 90
2020-03-15 06:00:00 7.8 3 Oeste 6 Oeste 0 -- -- 83
2020-03-15 05:00:00 8.1 3 Oeste 11 Sudeste 0 -- -- 81
2020-03-15 04:00:00 9.3 6 Sudeste 13 Este 0 -- -- 77
2020-03-15 03:00:00 8.9 3 Sur 6 Sudeste 0 -- -- 85
2020-03-15 02:00:00 8.4 3 Sudeste 6 Sur 0 -- -- 87
2020-03-15 01:00:00 8.3 2 Oeste 8 Sudeste 0 -- -- 89
2020-03-15 00:00:00 7.6 6 Sur 9 Sudeste 0 -- -- 91
2020-03-14 23:00:00 7.6 0 Calma 5 Noroeste 0 -- -- 91
2020-03-14 22:00:00 7.7 3 Sudeste 6 Este 0 -- -- 90
2020-03-14 21:00:00 7.6 0 Calma 12 Este 0 -- -- 90
2020-03-14 20:00:00 8.3 6 Nordeste 20 Este 0 -- -- 86
2020-03-14 19:00:00 10.2 0 Calma 10 Noroeste 0 -- -- 81
2020-03-14 18:00:00 12.1 6 Noroeste 11 Noroeste 0 -- -- 74
2020-03-14 17:00:00 12.4 9 Noroeste 26 Noroeste 0 -- -- 72
2020-03-14 16:00:00 12.3 14 Noroeste 23 Noroeste 0 -- -- 75
2020-03-14 15:00:00 12.4 15 Noroeste 26 Noroeste 0 -- -- 72
2020-03-14 14:00:00 12.1 15 Noroeste 22 Noroeste 0 -- -- 73
2020-03-14 13:00:00 12.1 13 Noroeste 17 Noroeste 0 -- -- 76
2020-03-14 12:00:00 11.7 4 Noroeste 10 Sudeste 0 -- -- 74
2020-03-14 11:00:00 9.9 4 Sudeste 10 Sur 0 -- -- 83
2020-03-14 10:00:00 9.2 5 Sudeste 8 Sudeste 0 -- -- 81
2020-03-14 09:00:00 7.6 2 Norte 14 Sur 0 -- -- 86
2020-03-14 08:00:00 5.8 6 Este 12 Sudeste 0 -- -- 90
2020-03-14 07:00:00 6.1 4 Sur 12 Sur 0 -- -- 89
2020-03-14 06:00:00 6.5 2 Sudeste 6 Sudoeste 0 -- -- 93
2020-03-14 05:00:00 7 0 Calma 4 Oeste 0 -- -- 94
2020-03-14 04:00:00 7.3 2 Sudoeste 5 Sudoeste 0 -- -- 100
2020-03-14 03:00:00 7.5 0 Calma 3 Nordeste 0 -- -- 100
2020-03-14 02:00:00 7.5 0 Calma 4 Sudoeste 0 -- -- 100
2020-03-14 01:00:00 7.4 2 Sudoeste 5 Sudoeste 0 -- -- 100
2020-03-14 00:00:00 7.7 0 Calma 4 Oeste 0 -- -- 100
2020-03-13 23:00:00 7.6 2 Sudeste 6 Noroeste 0 -- -- 100
2020-03-13 22:00:00 7.6 3 Noroeste 6 Sur 0 -- -- 100
2020-03-13 21:00:00 7.9 3 Sudoeste 9 Noroeste 0 -- -- 100
2020-03-13 20:00:00 8.3 2 Oeste 8 Sudoeste 0 -- -- 98
2020-03-13 19:00:00 9.1 6 Noroeste 11 Noroeste 0 -- -- 95
2020-03-13 18:00:00 9.9 6 Noroeste 10 Noroeste 0 -- -- 89
2020-03-13 17:00:00 9.3 11 Este 19 Nordeste 0 -- -- 90
2020-03-13 16:00:00 9.5 6 Nordeste 14 Nordeste 0 -- -- 90
2020-03-13 15:00:00 9.3 8 Nordeste 17 Nordeste 0 -- -- 90
2020-03-13 14:00:00 9.2 9 Este 18 Este 0 -- -- 89
2020-03-13 13:00:00 8.6 12 Este 20 Este 0 -- -- 91
2020-03-13 12:00:00 8.4 8 Nordeste 24 Nordeste 0 -- -- 93
2020-03-13 11:00:00 8.1 10 Nordeste 27 Nordeste 0 -- -- 93
2020-03-13 10:00:00 7.4 9 Nordeste 28 Nordeste 0 -- -- 98
2020-03-13 09:00:00 6.7 10 Nordeste 27 Nordeste 0 -- -- 100
2020-03-13 08:00:00 6.5 17 Nordeste 32 Nordeste 0 -- -- 99
2020-03-13 07:00:00 6.4 20 Nordeste 35 Nordeste 0 -- -- 99
2020-03-13 06:00:00 6.4 21 Nordeste 34 Nordeste 0 -- -- 99
2020-03-13 05:00:00 6.5 19 Nordeste 32 Nordeste 0.2 -- -- 99
2020-03-13 04:00:00 6.5 20 Nordeste 36 Este 0 -- -- 99
2020-03-13 03:00:00 6.8 19 Nordeste 33 Nordeste 0.2 -- -- 99
2020-03-13 02:00:00 6.7 12 Nordeste 25 Nordeste 0 -- -- 98
2020-03-13 01:00:00 6.8 13 Nordeste 26 Nordeste 0 -- -- 97
2020-03-13 00:00:00 6.8 12 Nordeste 20 Nordeste 0 -- -- 98
2020-03-12 23:00:00 7 10 Nordeste 24 Este 0 -- -- 95
2020-03-12 22:00:00 6.8 9 Nordeste 23 Norte 0 -- -- 98
2020-03-12 21:00:00 6.9 9 Norte 25 Norte 0 -- -- 99
2020-03-12 20:00:00 7 12 Norte 23 Norte 0.2 -- -- 100
2020-03-12 19:00:00 7 5 Norte 26 Nordeste 0 -- -- 99
2020-03-12 18:00:00 7.9 17 Norte 28 Nordeste 0.2 -- -- 98
2020-03-12 17:00:00 8.6 9 Norte 26 Noroeste 0.2 -- -- 100
2020-03-12 16:00:00 8.6 15 Noroeste 24 Noroeste 0.2 -- -- 100
2020-03-12 15:00:00 8.9 13 Noroeste 22 Noroeste 0.2 -- -- 99
2020-03-12 14:00:00 9.5 4 Norte 20 Noroeste 0 -- -- 94
2020-03-12 13:00:00 9.7 13 Noroeste 22 Noroeste 0 -- -- 96
2020-03-12 12:00:00 10.5 3 Sur 10 Norte 0 -- -- 94
2020-03-12 11:00:00 9.4 6 Noroeste 17 Noroeste 0.2 -- -- 100
2020-03-12 10:00:00 9.6 6 Noroeste 14 Noroeste 0 -- -- 100
2020-03-12 09:00:00 9.8 6 Noroeste 10 Noroeste 0 -- -- 97
2020-03-12 08:00:00 9.9 5 Este 11 Noroeste 0 -- -- 95
2020-03-12 07:00:00 10.5 0 Calma 6 Nordeste 0 -- -- 91
2020-03-12 06:00:00 10.5 4 Nordeste 13 Noroeste 0 -- -- 92
2020-03-12 05:00:00 10.6 9 Noroeste 14 Noroeste 0 -- -- 93
2020-03-12 04:00:00 10.9 5 Noroeste 14 Oeste 0 -- -- 95
2020-03-12 03:00:00 11 11 Noroeste 14 Noroeste 0 -- -- 94
2020-03-12 02:00:00 11.2 0 Calma 9 Noroeste 0 -- -- 94
2020-03-12 01:00:00 11.3 4 Noroeste 9 Noroeste 0 -- -- 95
2020-03-12 00:00:00 11.3 3 Sudoeste 5 Sudoeste 0 -- -- 95
2020-03-11 23:00:00 11.3 0 Calma 8 Sudoeste 0 -- -- 94
2020-03-11 22:00:00 11.3 3 Este 6 Este 0 -- -- 95
2020-03-11 21:00:00 10.9 6 Este 21 Este 0 -- -- 96
2020-03-11 20:00:00 11.1 9 Este 14 Este 0 -- -- 94
2020-03-11 19:00:00 11.4 5 Este 13 Este 0 -- -- 94
2020-03-11 18:00:00 12.1 8 Noroeste 22 Noroeste 0 -- -- 91
2020-03-11 17:00:00 13.7 14 Noroeste 23 Noroeste 0 -- -- 83
2020-03-11 16:00:00 14.1 18 Noroeste 26 Noroeste 0 -- -- 82
2020-03-11 15:00:00 15.8 10 Noroeste 18 Noroeste 0 -- -- 82
2020-03-11 14:00:00 15.4 8 Noroeste 12 Noroeste 0 -- -- 83
2020-03-11 13:00:00 14.8 8 Noroeste 15 Oeste 0 -- -- 82
2020-03-11 12:00:00 13.8 8 Oeste 13 Oeste 0 -- -- 87
2020-03-11 11:00:00 13.4 3 Noroeste 8 Sur 0 -- -- 82
2020-03-11 10:00:00 12.2 5 Sudeste 9 Sudeste 0 -- -- 89
2020-03-11 09:00:00 10.8 0 Calma 5 Sur 0 -- -- 96
2020-03-11 08:00:00 9.3 2 Sur 4 Sur 0 -- -- 97
2020-03-11 07:00:00 9.7 0 Calma 4 Sur 0 -- -- 98
2020-03-11 06:00:00 9.9 0 Calma 4 Noroeste 0 -- -- 97
2020-03-11 05:00:00 10.2 2 Noroeste 4 Noroeste 0 -- -- 95
2020-03-11 04:00:00 10.5 2 Sur 8 Este 0 -- -- 94
2020-03-11 03:00:00 11.1 3 Sudeste 9 Este 0 -- -- 91
2020-03-11 02:00:00 10.9 3 Sur 5 Oeste 0 -- -- 92
2020-03-11 01:00:00 11.8 0 Calma 10 Sur 0 -- -- 88
2020-03-11 00:00:00 11.3 4 Sudeste 10 Este 0 -- -- 90
2020-03-10 23:00:00 10.9 4 Sudeste 8 Sudoeste 0 -- -- 92
2020-03-10 22:00:00 10.9 3 Sur 9 Sur 0 -- -- 92
2020-03-10 21:00:00 11.4 2 Sudoeste 12 Noroeste 0 -- -- 90
2020-03-10 20:00:00 12.2 2 Nordeste 13 Noroeste 0 -- -- 86
2020-03-10 19:00:00 12.3 10 Noroeste 18 Noroeste 0 -- -- 85
2020-03-10 18:00:00 13.9 14 Noroeste 21 Noroeste 0 -- -- 77
2020-03-10 17:00:00 15.3 12 Noroeste 17 Noroeste 0 -- -- 68
2020-03-10 16:00:00 16.8 6 Oeste 17 Oeste 0 -- -- 69
2020-03-10 15:00:00 16.3 7 Oeste 17 Oeste 0 -- -- 70
2020-03-10 14:00:00 15.9 6 Oeste 13 Noroeste 0 -- -- 74
2020-03-10 13:00:00 14.9 8 Oeste 11 Oeste 0 -- -- 66
2020-03-10 12:00:00 14.2 3 Oeste 14 Oeste 0 -- -- 66
2020-03-10 11:00:00 13 6 Sudeste 12 Este 0 -- -- 52
2020-03-10 10:00:00 13 5 Sudoeste 17 Sudoeste 0 -- -- 40
2020-03-10 09:00:00 11.5 5 Sudeste 15 Este 0 -- -- 43
2020-03-10 08:00:00 10.3 3 Sudeste 14 Sudeste 0 -- -- 52
2020-03-10 07:00:00 10.5 6 Sudoeste 21 Oeste 0 -- -- 55
2020-03-10 06:00:00 10.8 3 Nordeste 12 Sur 0 -- -- 54
2020-03-10 05:00:00 10.6 5 Oeste 16 Oeste 0 -- -- 64
2020-03-10 04:00:00 10.5 5 Noroeste 10 Oeste 0 -- -- 67
2020-03-10 03:00:00 10.7 2 Noroeste 13 Oeste 0 -- -- 65
2020-03-10 02:00:00 10.7 5 Oeste 19 Sudoeste 0 -- -- 66
2020-03-10 01:00:00 10.4 4 Sur 10 Sudoeste 0 -- -- 70
2020-03-10 00:00:00 10.3 5 Sudoeste 16 Sur 0 -- -- 74
2020-03-09 23:00:00 9.9 5 Sur 10 Sudeste 0 -- -- 81
2020-03-09 22:00:00 9.1 2 Sudeste 3 Sudeste 0 -- -- 90
2020-03-09 21:00:00 9 0 Calma 4 Sudeste 0 -- -- 91
2020-03-09 20:00:00 9.4 2 Sur 6 Sur 0 -- -- 89
2020-03-09 19:00:00 10.1 5 Oeste 14 Noroeste 0 -- -- 85
2020-03-09 18:00:00 11.4 9 Noroeste 20 Noroeste 0 -- -- 79
2020-03-09 17:00:00 12.5 14 Noroeste 19 Noroeste 0 -- -- 75
2020-03-09 16:00:00 13.4 12 Noroeste 27 Noroeste 0 -- -- 70
2020-03-09 15:00:00 14.3 12 Noroeste 19 Noroeste 0 -- -- 58
2020-03-09 14:00:00 13.5 5 Noroeste 16 Noroeste 0 -- -- 65
2020-03-09 13:00:00 12.9 10 Sudoeste 26 Sudoeste 0 -- -- 67
2020-03-09 12:00:00 10.7 6 Sudoeste 19 Sudoeste 0 -- -- 72
2020-03-09 11:00:00 9.6 5 Noroeste 21 Oeste 0 -- -- 75
2020-03-09 10:00:00 8.7 5 Noroeste 18 Sudoeste 0 -- -- 79
2020-03-09 09:00:00 7.9 4 Norte 15 Sudoeste 0 -- -- 84
2020-03-09 08:00:00 6.5 5 Sur 11 Sur 0 -- -- 87
2020-03-09 07:00:00 7.2 4 Oeste 12 Sudoeste 0 -- -- 84
2020-03-09 06:00:00 7.4 3 Oeste 10 Oeste 0 -- -- 83
2020-03-09 05:00:00 7.5 5 Noroeste 21 Oeste 0 -- -- 81
2020-03-09 04:00:00 7.9 8 Oeste 21 Sudoeste 0 -- -- 78
2020-03-09 03:00:00 8 8 Oeste 19 Oeste 0 -- -- 82
2020-03-09 02:00:00 8.1 5 Oeste 22 Sudoeste 0 -- -- 83
2020-03-09 01:00:00 8.4 7 Oeste 19 Sudoeste 0 -- -- 84
2020-03-09 00:00:00 9.1 12 Noroeste 27 Noroeste 0 -- -- 80
2020-03-08 23:00:00 9.6 15 Noroeste 35 Oeste 0 -- -- 74
2020-03-08 22:00:00 10.3 9 Oeste 28 Noroeste 0 -- -- 69
2020-03-08 21:00:00 10.5 14 Noroeste 30 Sudoeste 0 -- -- 66
2020-03-08 20:00:00 10.8 14 Oeste 33 Oeste 0 -- -- 66
2020-03-08 19:00:00 11 20 Noroeste 31 Noroeste 0 -- -- 77
2020-03-08 18:00:00 11.4 19 Noroeste 41 Noroeste 0 -- -- 77
2020-03-08 17:00:00 11.5 16 Noroeste 43 Noroeste 0 -- -- 85
2020-03-08 16:00:00 15 9 Oeste 37 Noroeste 0 -- -- 64
2020-03-08 15:00:00 14.1 13 Noroeste 32 Sudoeste 0 -- -- 67
2020-03-08 14:00:00 15.6 14 Oeste 33 Sudoeste 0 -- -- 69
2020-03-08 13:00:00 14.3 8 Oeste 35 Sur 0 -- -- 76
2020-03-08 12:00:00 13.3 21 Sur 46 Sudoeste 0 -- -- 77
2020-03-08 11:00:00 10.9 15 Sudoeste 40 Sudoeste 0 -- -- 82
2020-03-08 10:00:00 10.1 13 Sudoeste 49 Sur 0 -- -- 81
2020-03-08 09:00:00 9.8 13 Sudoeste 48 Sudoeste 0 -- -- 80
2020-03-08 08:00:00 9.4 19 Sudoeste 45 Sudoeste 0 -- -- 80
2020-03-08 07:00:00 8.9 15 Oeste 50 Sudoeste 0.2 -- -- 82
2020-03-08 06:00:00 8.5 16 Sudoeste 42 Sudoeste 0.2 -- -- 85
2020-03-08 05:00:00 9.2 22 Sudoeste 51 Sudoeste 0 -- -- 71
2020-03-08 04:00:00 8.9 8 Oeste 21 Sudoeste 0 -- -- 75
2020-03-08 03:00:00 8.7 7 Noroeste 36 Oeste 0 -- -- 78
2020-03-08 02:00:00 8.5 13 Sudoeste 35 Sur 0 -- -- 80
2020-03-08 01:00:00 7.5 3 Noroeste 27 Sudoeste 0 -- -- 87
2020-03-08 00:00:00 7.3 9 Sudeste 19 Sur 0 -- -- 88
2020-03-07 23:00:00 7.4 5 Sudeste 7 Este 0 -- -- 89
2020-03-07 22:00:00 8 3 Sudeste 6 Sudeste 0 -- -- 87
2020-03-07 21:00:00 8 2 Sudeste 17 Este 0 -- -- 86
2020-03-07 20:00:00 8.1 3 Sudeste 8 Oeste 0 -- -- 88
2020-03-07 19:00:00 9.5 3 Oeste 14 Noroeste 0 -- -- 81
2020-03-07 18:00:00 11.3 8 Noroeste 16 Noroeste 0 -- -- 76
2020-03-07 17:00:00 12 11 Noroeste 17 Noroeste 0 -- -- 73
2020-03-07 16:00:00 12.2 10 Noroeste 18 Noroeste 0 -- -- 72
2020-03-07 15:00:00 12.2 11 Noroeste 19 Noroeste 0 -- -- 73
2020-03-07 14:00:00 11.4 14 Noroeste 20 Noroeste 0 -- -- 76
2020-03-07 13:00:00 12.3 6 Noroeste 17 Sudoeste 0 -- -- 70
2020-03-07 12:00:00 10.7 4 Sudoeste 13 Sur 0 -- -- 74
2020-03-07 11:00:00 9.1 4 Oeste 15 Sudoeste 0 -- -- 82
2020-03-07 10:00:00 8.3 8 Sudoeste 19 Sudoeste 0 -- -- 86
2020-03-07 09:00:00 7.1 2 Sudeste 12 Sudoeste 0 -- -- 93
2020-03-07 08:00:00 7.2 4 Sudoeste 10 Sur 0 -- -- 93
2020-03-07 07:00:00 7.3 7 Sudoeste 9 Sudoeste 0 -- -- 94
2020-03-07 06:00:00 7.4 6 Sudoeste 10 Sur 0 -- -- 96
2020-03-07 05:00:00 7.5 6 Sudoeste 9 Oeste 0 -- -- 98
2020-03-07 04:00:00 6.9 7 Sudoeste 14 Sur 0.2 -- -- 100
2020-03-07 03:00:00 7 2 Oeste 12 Sudoeste 0.8 -- -- 99
2020-03-07 02:00:00 7.7 4 Sudoeste 12 Sudoeste 0 -- -- 91
2020-03-07 01:00:00 7.4 7 Sudoeste 13 Sur 0 -- -- 93
2020-03-07 00:00:00 7.1 8 Sudoeste 15 Sudoeste 0 -- -- 95
2020-03-06 23:00:00 6.6 6 Sur 13 Sudoeste 0 -- -- 95
2020-03-06 22:00:00 6.7 3 Noroeste 15 Sudoeste 0 -- -- 88
2020-03-06 21:00:00 7.2 4 Oeste 17 Noroeste 0 -- -- 80
2020-03-06 20:00:00 7.3 4 Oeste 23 Noroeste 0 -- -- 78
2020-03-06 19:00:00 7.5 12 Noroeste 35 Oeste 0 -- -- 77
2020-03-06 18:00:00 7.6 22 Noroeste 41 Noroeste 0 -- -- 82
2020-03-06 17:00:00 7.7 27 Noroeste 55 Noroeste 0 -- -- 78
2020-03-06 16:00:00 8.3 27 Noroeste 53 Noroeste 0 -- -- 79
2020-03-06 15:00:00 7.9 30 Noroeste 51 Noroeste 0.2 -- -- 68
2020-03-06 14:00:00 6.2 19 Noroeste 58 Noroeste 0.2 -- -- 90
2020-03-06 13:00:00 7.1 20 Noroeste 47 Noroeste 0 -- -- 83
2020-03-06 12:00:00 6.5 14 Noroeste 45 Oeste 0.8 -- -- 83
2020-03-06 11:00:00 6.2 11 Oeste 35 Oeste 0 -- -- 84
2020-03-06 10:00:00 4.9 13 Noroeste 39 Noroeste 0.2 -- -- 88
2020-03-06 09:00:00 4.5 14 Noroeste 60 Oeste 2 -- -- 96
2020-03-06 08:00:00 4.9 18 Noroeste 60 Noroeste 0.8 -- -- 95
2020-03-06 07:00:00 4.5 31 Noroeste 59 Noroeste 1.8 -- -- 96
2020-03-06 06:00:00 4.6 25 Noroeste 59 Oeste 0.8 -- -- 93
2020-03-06 05:00:00 5.5 17 Oeste 51 Noroeste 0.4 -- -- 85
2020-03-06 04:00:00 6 17 Noroeste 38 Noroeste 0 -- -- 82
2020-03-06 03:00:00 6.1 12 Oeste 46 Oeste 0.4 -- -- 85
2020-03-06 02:00:00 6.1 14 Oeste 53 Noroeste 0.2 -- -- 89
2020-03-06 01:00:00 5.9 11 Oeste 52 Oeste 1.4 -- -- 91
2020-03-06 00:00:00 6.4 12 Oeste 31 Oeste 2.8 -- -- 91
2020-03-05 23:00:00 7.1 11 Oeste 37 Sudoeste 0.6 -- -- 88
2020-03-05 22:00:00 7.7 9 Noroeste 34 Sudoeste 0 -- -- 82
2020-03-05 21:00:00 7.8 5 Noroeste 22 Oeste 0.2 -- -- 80
2020-03-05 20:00:00 8.3 9 Oeste 22 Oeste 0 -- -- 77
2020-03-05 19:00:00 8.8 5 Oeste 21 Oeste 0 -- -- 80
2020-03-05 18:00:00 9.4 4 Noroeste 38 Oeste 0 -- -- 89
2020-03-05 17:00:00 8.9 5 Noroeste 52 Noroeste 0.4 -- -- 91
2020-03-05 16:00:00 10.1 9 Oeste 41 Noroeste 0 -- -- 80
2020-03-05 15:00:00 8.9 29 Noroeste 46 Noroeste 0 -- -- 84
2020-03-05 14:00:00 9.8 20 Noroeste 46 Noroeste 0 -- -- 89
2020-03-05 13:00:00 8.8 16 Oeste 45 Oeste 0.2 -- -- 91
2020-03-05 12:00:00 7.5 28 Noroeste 53 Noroeste 2.6 -- -- 99
2020-03-05 11:00:00 8.6 15 Noroeste 46 Oeste 0.6 -- -- 88
2020-03-05 10:00:00 9.7 13 Oeste 37 Oeste 0 -- -- 75
2020-03-05 09:00:00 9.3 15 Noroeste 42 Sudoeste 0 -- -- 72
2020-03-05 08:00:00 8.7 14 Noroeste 47 Sudoeste 0.2 -- -- 78
2020-03-05 07:00:00 8.6 8 Noroeste 42 Sur 0.4 -- -- 90
2020-03-05 06:00:00 9.4 15 Oeste 46 Noroeste 1.4 -- -- 88
2020-03-05 05:00:00 10.5 18 Oeste 46 Noroeste 4 -- -- 93
2020-03-05 04:00:00 12.9 18 Oeste 61 Sudoeste 1.2 -- -- 89
2020-03-05 03:00:00 14.4 31 Sudoeste 71 Sudoeste 0 -- -- 77
2020-03-05 02:00:00 14.6 23 Sudoeste 67 Sudoeste 0 -- -- 78
2020-03-05 01:00:00 14.9 24 Oeste 73 Sudoeste 0 -- -- 76
2020-03-05 00:00:00 15.2 24 Sudoeste 63 Sudoeste 0 -- -- 76
2020-03-04 23:00:00 14.8 20 Sudoeste 50 Sudoeste 0 -- -- 80
2020-03-04 22:00:00 14.2 12 Noroeste 42 Sudoeste 0 -- -- 85
2020-03-04 21:00:00 14.6 11 Oeste 37 Sudoeste 0 -- -- 80
2020-03-04 20:00:00 14.5 11 Noroeste 39 Sudoeste 0 -- -- 81
2020-03-04 19:00:00 15.1 12 Sudoeste 39 Oeste 0 -- -- 74
2020-03-04 18:00:00 15.8 10 Sudoeste 39 Sudoeste 0 -- -- 68
2020-03-04 17:00:00 16.1 15 Oeste 38 Sudoeste 0 -- -- 69
2020-03-04 16:00:00 15.5 13 Noroeste 41 Oeste 0 -- -- 75
2020-03-04 15:00:00 15.9 22 Sudoeste 54 Sudoeste 0 -- -- 71
2020-03-04 14:00:00 17.1 18 Sudoeste 48 Sur 0 -- -- 67
2020-03-04 13:00:00 15.6 18 Oeste 59 Oeste 0 -- -- 72
2020-03-04 12:00:00 16.3 17 Sudoeste 48 Sudoeste 0 -- -- 72
2020-03-04 11:00:00 15 24 Sudoeste 53 Oeste 0 -- -- 75
2020-03-04 10:00:00 14.4 15 Sudoeste 48 Sudoeste 0 -- -- 77
2020-03-04 09:00:00 13.5 17 Sudoeste 53 Oeste 0 -- -- 80
2020-03-04 08:00:00 13.4 19 Sudoeste 52 Sudoeste 0 -- -- 77
2020-03-04 07:00:00 13.3 9 Noroeste 37 Sudoeste 0 -- -- 81
2020-03-04 06:00:00 13.4 11 Noroeste 26 Sudoeste 0 -- -- 84
2020-03-04 05:00:00 13.7 9 Noroeste 30 Sudoeste 0 -- -- 84
2020-03-04 04:00:00 13.8 9 Noroeste 41 Sudoeste 0 -- -- 85
2020-03-04 03:00:00 13.8 13 Sudoeste 41 Sudoeste 0 -- -- 87
2020-03-04 02:00:00 13.1 8 Oeste 31 Sudoeste 0 -- -- 92
2020-03-04 01:00:00 12.4 10 Noroeste 36 Sudoeste 0.2 -- -- 95
2020-03-04 00:00:00 11.3 10 Sudoeste 27 Sur 2.4 -- -- 98
2020-03-03 23:00:00 11.2 6 Oeste 29 Sur 0 -- -- 96
2020-03-03 22:00:00 11.1 8 Sudeste 21 Sudoeste 1 -- -- 91
2020-03-03 21:00:00 12.1 6 Sudoeste 28 Sur 0.2 -- -- 78
2020-03-03 20:00:00 12.7 8 Sudoeste 27 Sudoeste 0 -- -- 73
2020-03-03 19:00:00 13 11 Oeste 31 Sudoeste 0 -- -- 71
2020-03-03 18:00:00 13.6 8 Noroeste 22 Sudoeste 0 -- -- 70
2020-03-03 17:00:00 14 8 Oeste 42 Noroeste 0 -- -- 68
2020-03-03 16:00:00 14.3 18 Noroeste 41 Sudoeste 0 -- -- 65
2020-03-03 15:00:00 14.5 19 Noroeste 43 Oeste 0 -- -- 68
2020-03-03 14:00:00 15.1 13 Noroeste 51 Noroeste 0 -- -- 65
2020-03-03 13:00:00 15.1 13 Oeste 54 Oeste 0 -- -- 68
2020-03-03 12:00:00 15.2 24 Noroeste 58 Noroeste 0 -- -- 68
2020-03-03 11:00:00 15.4 25 Oeste 63 Oeste 0 -- -- 67
2020-03-03 10:00:00 14.5 23 Oeste 62 Oeste 0 -- -- 78
2020-03-03 09:00:00 13 18 Noroeste 74 Sudoeste 0 -- -- 83
2020-03-03 08:00:00 11.4 22 Oeste 73 Sudoeste 0 -- -- 85
2020-03-03 07:00:00 10.7 25 Oeste 91 Sudoeste 0 -- -- 84
2020-03-03 06:00:00 10.2 31 Oeste 74 Sudoeste 0 -- -- 80
2020-03-03 05:00:00 9.1 27 Oeste 84 Sudoeste 0.4 -- -- 82
2020-03-03 04:00:00 8.2 18 Oeste 48 Oeste 0.8 -- -- 86
2020-03-03 03:00:00 7.2 17 Sudoeste 44 Sudoeste 1 -- -- 89
2020-03-03 02:00:00 6.9 12 Sudoeste 38 Sur 0.2 -- -- 89
2020-03-03 01:00:00 7.9 13 Sudoeste 41 Sur 0 -- -- 78
2020-03-03 00:00:00 7.6 17 Sudoeste 40 Sudoeste 0 -- -- 78
2020-03-02 23:00:00 7.2 9 Oeste 45 Oeste 0 -- -- 80
2020-03-02 22:00:00 6.8 12 Oeste 40 Sudoeste 0 -- -- 82
2020-03-02 21:00:00 6.4 8 Noroeste 28 Sudoeste 0 -- -- 84
2020-03-02 20:00:00 6 5 Noroeste 25 Sur 0 -- -- 85
2020-03-02 19:00:00 5.5 4 Oeste 19 Oeste 0 -- -- 89
2020-03-02 18:00:00 5.1 36 Noroeste 66 Noroeste 0.4 -- -- 94
2020-03-02 17:00:00 7.9 14 Noroeste 36 Noroeste 0 -- -- 79
2020-03-02 16:00:00 5.4 15 Noroeste 44 Noroeste 0.6 -- -- 92
2020-03-02 15:00:00 7.1 22 Noroeste 50 Noroeste 0.2 -- -- 79
2020-03-02 14:00:00 4.3 42 Noroeste 101 Noroeste 0.2 -- -- 93
2020-03-02 13:00:00 5.3 17 Noroeste 58 Oeste 0.4 -- -- 90
2020-03-02 12:00:00 5.7 28 Noroeste 60 Oeste 0.6 -- -- 83
2020-03-02 11:00:00 5.3 16 Oeste 53 Oeste 1.2 -- -- 84
2020-03-02 10:00:00 4.9 15 Oeste 54 Noroeste 0.6 -- -- 89
2020-03-02 09:00:00 5.5 15 Noroeste 36 Noroeste 0.6 -- -- 89
2020-03-02 08:00:00 5.9 24 Noroeste 50 Noroeste 0.2 -- -- 89
2020-03-02 07:00:00 5 13 Oeste 51 Noroeste 1 -- -- 93
2020-03-02 06:00:00 5.5 17 Oeste 60 Oeste 1 -- -- 93
2020-03-02 05:00:00 6.7 28 Noroeste 57 Noroeste 0.8 -- -- 96
2020-03-02 04:00:00 6.7 28 Noroeste 70 Oeste 2.2 -- -- 99
2020-03-02 03:00:00 7.7 37 Noroeste 76 Noroeste 4.2 -- -- 100
2020-03-02 02:00:00 8.7 23 Noroeste 54 Noroeste 7.4 -- -- 100
2020-03-02 01:00:00 8.5 9 Noroeste 24 Oeste 9.8 -- -- 99
2020-03-02 00:00:00 9 5 Noroeste 22 Sudoeste 3.6 -- -- 98